Time;durP1;ratioP1;P1;durP2;ratioP2;P2;SDS_P1;SDS_P2;PMS_P1;PMS_P2;Temp;Humidity;BMP_temperature;BMP_pressure;BME280_temperature;BME280_humidity;BME280_pressure;Samples;Min_cycle;Max_cycle;Signal;HPM_P1;HPM_P2
2022/12/28 00:01:26;;;;;;;7.68;0.90;;;11.00;99.90;;;;;;5061301;28;20480;-72
2022/12/28 00:03:56;;;;;;;3.38;0.60;;;9.60;99.90;;;;;;5094591;28;20048;-73
2022/12/28 00:06:25;;;;;;;5.47;0.70;;;9.60;99.90;;;;;;5077613;28;20048;-72
2022/12/28 00:08:53;;;;;;;;;;;9.70;99.90;;;;;;5078462;28;20047;-73
2022/12/28 00:11:22;;;;;;;5.18;0.73;;;9.70;99.90;;;;;;5060167;28;19927;-72
2022/12/28 00:13:59;;;;;;;5.60;0.85;;;9.70;99.90;;;;;;5095414;28;20047;-72
2022/12/28 00:16:38;;;;;;;4.30;0.63;;;9.80;99.90;;;;;;5095420;28;20094;-72
2022/12/28 00:19:12;;;;;;;7.35;0.80;;;9.80;99.90;;;;;;5060057;28;20498;-72
2022/12/28 00:21:40;;;;;;;2.40;0.43;;;9.80;99.90;;;;;;5077851;28;20048;-73
2022/12/28 00:24:17;;;;;;;3.78;0.30;;;9.80;99.90;;;;;;5059895;28;20384;-73
2022/12/28 00:26:45;;;;;;;3.63;0.43;;;9.80;99.90;;;;;;5095717;28;20048;-72
2022/12/28 00:29:13;;;;;;;4.22;0.57;;;10.90;99.90;;;;;;5060948;28;20052;-72
2022/12/28 00:31:40;;;;;;;3.60;0.50;;;9.80;99.90;;;;;;5076257;28;20048;-72
2022/12/28 00:34:08;;;;;;;3.08;0.40;;;9.90;99.90;;;;;;5077629;28;20052;-73
2022/12/28 00:36:36;;;;;;;2.30;0.30;;;9.90;99.90;;;;;;5077730;28;20337;-73
2022/12/28 00:39:23;;;;;;;2.50;0.32;;;9.90;99.90;;;;;;5061247;28;20480;-73
2022/12/28 00:41:50;;;;;;;2.50;0.40;;;9.90;99.90;;;;;;5095097;28;20036;-73
2022/12/28 00:44:18;;;;;;;2.23;0.33;;;10.00;99.90;;;;;;5093970;28;20040;-73
2022/12/28 00:46:48;;;;;;;3.28;0.40;;;10.00;99.90;;;;;;5061391;28;20276;-72
2022/12/28 00:49:17;;;;;;;2.08;0.25;;;10.00;99.90;;;;;;5077213;28;20044;-73
2022/12/28 00:51:45;;;;;;;3.05;0.28;;;10.00;99.90;;;;;;5059513;28;20048;-73
2022/12/28 00:54:12;;;;;;;1.27;0.20;;;10.50;99.90;;;;;;5095005;28;20048;-72
2022/12/28 00:56:43;;;;;;;3.03;0.40;;;10.10;99.90;;;;;;5077609;28;20059;-73
2022/12/28 00:59:11;;;;;;;2.15;0.30;;;10.10;99.90;;;;;;5077514;28;20345;-72
2022/12/28 01:01:38;;;;;;;2.30;0.35;;;10.90;99.90;;;;;;5077225;28;20048;-72
2022/12/28 01:04:06;;;;;;;1.67;0.22;;;10.10;99.90;;;;;;5053958;28;20056;-71
2022/12/28 01:06:34;;;;;;;3.15;0.30;;;10.20;99.90;;;;;;5057447;28;20040;-71
2022/12/28 01:09:04;;;;;;;1.75;0.22;;;10.20;99.90;;;;;;5040772;28;20075;-72
2022/12/28 01:11:31;;;;;;;1.50;0.20;;;10.20;99.90;;;;;;5055716;28;20040;-71
2022/12/28 01:14:01;;;;;;;6.38;0.52;;;10.20;99.90;;;;;;5074750;28;20044;-72
2022/12/28 01:16:32;;;;;;;3.13;0.35;;;11.20;99.90;;;;;;5057121;28;20064;-72
2022/12/28 01:19:03;;;;;;;1.55;0.20;;;10.20;99.90;;;;;;5039255;28;20461;-72
2022/12/28 01:21:33;;;;;;;5.90;0.40;;;10.20;99.90;;;;;;5074856;28;20057;-72
2022/12/28 01:24:03;;;;;;;0.50;0.20;;;10.30;99.90;;;;;;5055638;28;20045;-71
2022/12/28 01:26:31;;;;;;;1.85;0.30;;;10.30;99.90;;;;;;5024193;28;20052;-72
2022/12/28 01:28:59;;;;;;;2.60;0.40;;;10.30;99.90;;;;;;5056979;28;20449;-71
2022/12/28 01:31:27;;;;;;;3.85;0.40;;;10.30;99.90;;;;;;5055690;28;20044;-72
2022/12/28 01:33:54;;;;;;;1.08;0.20;;;10.30;99.90;;;;;;5056984;28;20464;-71
2022/12/28 01:36:27;;;;;;;0.73;0.30;;;10.30;99.90;;;;;;5074382;28;20052;-72
2022/12/28 01:38:57;;;;;;;1.15;0.30;;;10.30;99.90;;;;;;5039343;28;20048;-71
2022/12/28 01:41:27;;;;;;;1.85;0.38;;;10.30;99.90;;;;;;5074012;28;20389;-72
2022/12/28 01:43:54;;;;;;;1.35;0.45;;;10.50;99.90;;;;;;5039423;28;20044;-72
2022/12/28 01:46:38;;;;;;;1.92;0.40;;;10.40;99.90;;;;;;5056805;28;20037;-72
2022/12/28 01:49:08;;;;;;;2.83;0.50;;;10.40;99.90;;;;;;5074261;28;20045;-71
2022/12/28 01:51:59;;;;;;;1.35;0.30;;;10.40;99.90;;;;;;5072953;28;20465;-71
2022/12/28 01:54:30;;;;;;;5.15;0.57;;;10.40;99.90;;;;;;5057066;28;20048;-71
2022/12/28 01:56:58;;;;;;;1.70;0.47;;;10.50;99.90;;;;;;5039006;28;20094;-71
2022/12/28 01:59:30;;;;;;;1.70;0.45;;;10.80;99.90;;;;;;5056368;28;20048;-72
2022/12/28 02:01:57;;;;;;;1.88;0.50;;;10.40;99.90;;;;;;5042478;28;20055;-71
2022/12/28 02:04:26;;;;;;;5.93;0.70;;;10.40;99.90;;;;;;5066715;28;20059;-72
2022/12/28 02:06:54;;;;;;;2.20;0.50;;;10.60;99.90;;;;;;5080572;28;20040;-72
2022/12/28 02:09:30;;;;;;;4.63;0.55;;;10.50;99.90;;;;;;5079980;28;20059;-71
2022/12/28 02:11:59;;;;;;;3.33;0.50;;;10.50;99.90;;;;;;5096998;28;20352;-71
2022/12/28 02:14:27;;;;;;;1.00;0.40;;;10.90;99.90;;;;;;5080120;28;20052;-71
2022/12/28 02:16:54;;;;;;;0.88;0.40;;;10.50;99.90;;;;;;5097065;28;20341;-72
2022/12/28 02:19:42;;;;;;;3.78;0.55;;;10.60;99.90;;;;;;5063796;28;20052;-72
2022/12/28 02:22:36;;;;;;;1.10;0.40;;;10.50;99.90;;;;;;5079942;28;20064;-72
2022/12/28 02:25:20;;;;;;;3.38;0.40;;;10.60;99.90;;;;;;5041784;28;20102;-72
2022/12/28 02:27:50;;;;;;;0.82;0.50;;;10.60;99.90;;;;;;5063486;28;20048;-72
2022/12/28 02:30:18;;;;;;;0.93;0.50;;;10.60;99.90;;;;;;5078732;28;20051;-71
2022/12/28 02:33:04;;;;;;;1.73;0.60;;;10.60;99.90;;;;;;5097787;28;20052;-71
2022/12/28 02:35:54;;;;;;;1.95;0.50;;;10.60;99.90;;;;;;5079604;28;20055;-71
2022/12/28 02:38:51;;;;;;;2.72;0.60;;;10.60;99.90;;;;;;5096114;28;20055;-72
2022/12/28 02:41:23;;;;;;;1.95;0.50;;;10.70;99.90;;;;;;5079699;28;20052;-71
2022/12/28 02:43:52;;;;;;;3.80;0.50;;;10.70;99.90;;;;;;5078423;28;20040;-71
2022/12/28 02:52:50;;;;;;;1.38;0.50;;;11.00;99.90;;;;;;5078119;28;20052;-71
2022/12/28 02:58:47;;;;;;;1.92;0.60;;;10.70;99.90;;;;;;5095730;28;20051;-72
2022/12/28 03:01:15;;;;;;;2.00;0.60;;;10.70;99.90;;;;;;5079248;28;20036;-71
2022/12/28 03:04:04;;;;;;;2.10;0.40;;;10.70;99.90;;;;;;5095966;28;20052;-72
2022/12/28 03:09:51;;;;;;;1.25;0.35;;;10.80;99.90;;;;;;5062290;28;20368;-71
2022/12/28 03:12:29;;;;;;;1.27;0.40;;;10.80;99.90;;;;;;5077331;28;20063;-71
2022/12/28 03:15:28;;;;;;;1.75;0.30;;;10.80;99.90;;;;;;5079282;28;20062;-71
2022/12/28 03:32:34;;;;;;;1.48;0.50;;;10.80;99.90;;;;;;5062461;28;20372;-71
2022/12/28 03:35:03;;;;;;;1.73;0.40;;;10.80;99.90;;;;;;5062040;28;20395;-72
2022/12/28 03:37:46;;;;;;;2.78;0.40;;;10.90;99.90;;;;;;5060802;28;20066;-72
2022/12/28 03:40:21;;;;;;;2.55;0.50;;;10.90;99.90;;;;;;5079249;28;20448;-72
2022/12/28 03:45:58;;;;;;;1.65;0.50;;;11.20;99.90;;;;;;5077140;28;20055;-71
2022/12/28 03:48:31;;;;;;;2.15;0.45;;;10.90;99.90;;;;;;5061935;28;20059;-72
2022/12/28 03:51:00;;;;;;;2.03;0.43;;;10.90;99.90;;;;;;5044757;28;20372;-71
2022/12/28 03:53:36;;;;;;;0.38;0.20;;;10.90;99.90;;;;;;5095766;28;20051;-72
2022/12/28 03:56:13;;;;;;;2.42;0.40;;;10.90;99.90;;;;;;5061529;28;20473;-71
2022/12/28 03:58:43;;;;;;;1.92;0.20;;;10.90;99.90;;;;;;5060111;28;20048;-71
2022/12/28 04:01:11;;;;;;;0.20;0.20;;;10.90;99.90;;;;;;5061259;28;20349;-71
2022/12/28 04:03:40;;;;;;;2.38;0.30;;;11.00;99.90;;;;;;5076484;28;20054;-71
2022/12/28 04:06:14;;;;;;;0.63;0.20;;;10.90;99.90;;;;;;5061707;28;20461;-72
2022/12/28 04:08:44;;;;;;;2.08;0.20;;;10.90;99.90;;;;;;5061259;28;20391;-71
2022/12/28 04:11:12;;;;;;;0.52;0.20;;;10.90;99.90;;;;;;5076583;28;20069;-71
2022/12/28 04:13:41;;;;;;;0.30;0.10;;;10.90;99.90;;;;;;5077722;28;20039;-72
2022/12/28 04:16:13;;;;;;;1.50;0.20;;;10.90;99.90;;;;;;5077583;28;20052;-71
2022/12/28 04:18:42;;;;;;;0.63;0.10;;;10.90;99.90;;;;;;5060203;28;20066;-72
2022/12/28 04:21:11;;;;;;;0.25;0.10;;;10.90;99.90;;;;;;5060983;28;20464;-71
2022/12/28 04:23:41;;;;;;;0.00;0.00;;;10.80;99.90;;;;;;5092339;28;20056;-72
2022/12/28 04:26:16;;;;;;;0.00;0.00;;;10.90;99.90;;;;;;5061504;28;20059;-71
2022/12/28 04:28:45;;;;;;;1.98;0.10;;;11.40;99.90;;;;;;5077899;28;20388;-72
2022/12/28 04:31:18;;;;;;;0.20;0.00;;;10.80;99.90;;;;;;5076575;28;20420;-71
2022/12/28 04:33:56;;;;;;;0.00;0.00;;;10.80;99.90;;;;;;5060715;28;20044;-71
2022/12/28 04:36:24;;;;;;;3.10;0.00;;;10.80;99.90;;;;;;5060662;28;20052;-71
2022/12/28 04:38:52;;;;;;;0.90;0.10;;;10.80;99.90;;;;;;5076267;28;20040;-71
2022/12/28 04:41:20;;;;;;;0.30;0.10;;;10.90;99.90;;;;;;5077547;28;20048;-71
2022/12/28 04:43:47;;;;;;;0.73;0.10;;;10.70;99.90;;;;;;5093752;28;20059;-71
2022/12/28 04:46:16;;;;;;;1.27;0.10;;;11.40;99.90;;;;;;5077429;28;20052;-72
2022/12/28 04:48:44;;;;;;;1.58;0.10;;;10.70;99.90;;;;;;5094984;28;20044;-71
2022/12/28 04:51:18;;;;;;;0.40;0.10;;;10.80;99.90;;;;;;5059632;28;20040;-71
2022/12/28 04:53:46;;;;;;;0.00;0.00;;;10.70;99.90;;;;;;5060844;28;20056;-71
2022/12/28 04:56:15;;;;;;;0.00;0.00;;;11.00;99.90;;;;;;5095254;28;20047;-72
2022/12/28 04:58:43;;;;;;;0.57;0.10;;;10.90;99.90;;;;;;5093646;28;20040;-71
2022/12/28 05:01:14;;;;;;;0.55;0.10;;;10.70;99.90;;;;;;5094685;28;20477;-71
2022/12/28 05:03:43;;;;;;;0.90;0.10;;;10.70;99.90;;;;;;5076370;28;20315;-71
2022/12/28 05:06:20;;;;;;;2.17;0.30;;;10.70;99.90;;;;;;5094845;28;20084;-71
2022/12/28 05:08:48;;;;;;;1.25;0.15;;;10.70;99.90;;;;;;5094743;28;20288;-71
2022/12/28 05:11:22;;;;;;;0.25;0.03;;;10.70;99.90;;;;;;5093562;28;20487;-71
2022/12/28 05:13:50;;;;;;;0.80;0.10;;;10.60;99.90;;;;;;5094527;28;20048;-72
2022/12/28 05:16:20;;;;;;;1.25;0.10;;;10.60;99.90;;;;;;5060533;28;20492;-72
2022/12/28 05:18:48;;;;;;;1.17;0.10;;;10.60;99.90;;;;;;5075958;28;20055;-72
2022/12/28 05:21:18;;;;;;;1.20;0.10;;;10.60;99.90;;;;;;5094772;28;20044;-72
2022/12/28 05:23:46;;;;;;;0.10;0.10;;;10.70;99.90;;;;;;5059093;28;20400;-71
2022/12/28 05:26:15;;;;;;;;;;;10.60;99.90;;;;;;5077256;28;20036;-71
2022/12/28 05:28:43;;;;;;;0.85;0.10;;;10.70;99.90;;;;;;5093558;28;19920;-71
2022/12/28 05:31:14;;;;;;;1.48;0.20;;;10.60;99.90;;;;;;5093520;28;20125;-72
2022/12/28 05:33:42;;;;;;;1.13;0.17;;;10.60;99.90;;;;;;5094788;28;20520;-71
2022/12/28 05:36:12;;;;;;;2.92;0.20;;;10.60;99.90;;;;;;5097463;28;20074;-71
2022/12/28 05:38:40;;;;;;;1.83;0.20;;;11.30;99.90;;;;;;5062928;28;20051;-71
2022/12/28 05:41:28;;;;;;;3.13;0.20;;;10.60;99.90;;;;;;5098405;28;20052;-71
2022/12/28 05:43:57;;;;;;;2.20;0.30;;;10.60;99.90;;;;;;5097414;28;20468;-71
2022/12/28 05:46:28;;;;;;;3.08;0.28;;;10.60;99.90;;;;;;5080526;28;20048;-71
2022/12/28 05:48:57;;;;;;;3.42;0.35;;;10.60;99.90;;;;;;5098306;28;20063;-72
2022/12/28 05:51:25;;;;;;;;;;;10.60;99.90;;;;;;5097544;28;20047;-71
2022/12/28 05:53:53;;;;;;;3.05;0.43;;;10.60;99.90;;;;;;5080567;28;20360;-71
2022/12/28 05:56:23;;;;;;;4.80;0.40;;;10.60;99.90;;;;;;5080476;28;20051;-72
2022/12/28 05:58:55;;;;;;;2.42;0.30;;;10.70;99.90;;;;;;5079484;28;20054;-71
2022/12/28 06:01:25;;;;;;;2.85;0.30;;;10.60;99.90;;;;;;5063639;28;20055;-71
2022/12/28 06:03:58;;;;;;;4.78;0.57;;;11.00;99.90;;;;;;5096616;28;20055;-71
2022/12/28 06:06:27;;;;;;;4.43;0.35;;;10.60;99.90;;;;;;5098392;28;20047;-72
2022/12/28 06:08:55;;;;;;;5.70;0.43;;;10.60;99.90;;;;;;5096980;28;20051;-71
2022/12/28 06:11:25;;;;;;;1.58;0.20;;;10.60;99.90;;;;;;5062194;28;20380;-71
2022/12/28 06:13:53;;;;;;;2.95;0.30;;;10.60;99.90;;;;;;5079875;28;20499;-71
2022/12/28 06:16:23;;;;;;;3.20;0.30;;;10.60;99.90;;;;;;5080342;28;20457;-72
2022/12/28 06:18:51;;;;;;;3.78;0.40;;;10.60;99.90;;;;;;5079155;28;20047;-72
2022/12/28 06:21:30;;;;;;;3.72;0.40;;;10.60;99.90;;;;;;5063735;28;20384;-72
2022/12/28 06:23:59;;;;;;;2.17;0.30;;;10.60;99.90;;;;;;5096472;28;20051;-73
2022/12/28 06:26:28;;;;;;;4.15;0.40;;;10.60;99.90;;;;;;5080149;28;20051;-72
2022/12/28 06:28:57;;;;;;;2.80;0.40;;;10.60;99.90;;;;;;5097503;28;20036;-71
2022/12/28 06:31:25;;;;;;;;;;;10.60;99.90;;;;;;5062294;28;20052;-71
2022/12/28 06:33:56;;;;;;;3.20;0.32;;;10.60;99.90;;;;;;5097713;28;19920;-71
2022/12/28 06:36:26;;;;;;;1.58;0.22;;;10.60;99.90;;;;;;5079977;28;20055;-72
2022/12/28 06:38:56;;;;;;;1.85;0.20;;;10.60;99.90;;;;;;5061983;28;20044;-71
2022/12/28 06:41:25;;;;;;;0.85;0.20;;;10.60;99.90;;;;;;5080027;28;20056;-72
2022/12/28 06:43:53;;;;;;;3.55;0.30;;;10.50;99.90;;;;;;5078934;28;20040;-72
2022/12/28 06:46:23;;;;;;;3.15;0.50;;;10.50;99.90;;;;;;5079090;28;20063;-71
2022/12/28 06:48:51;;;;;;;3.60;0.38;;;10.50;99.90;;;;;;5079617;28;20040;-71
2022/12/28 06:51:29;;;;;;;1.65;0.20;;;10.50;99.90;;;;;;5078344;28;20376;-71
2022/12/28 06:53:57;;;;;;;1.55;0.32;;;10.50;99.90;;;;;;5080126;28;20048;-71
2022/12/28 06:56:30;;;;;;;4.75;0.30;;;10.50;99.90;;;;;;5063190;28;20370;-71
2022/12/28 06:58:59;;;;;;;5.15;0.55;;;10.50;99.90;;;;;;5078076;28;20044;-72
2022/12/28 07:01:38;;;;;;;6.18;0.52;;;10.70;99.90;;;;;;5080070;28;20055;-71
2022/12/28 07:04:08;;;;;;;6.43;0.70;;;10.50;99.90;;;;;;5095486;28;20067;-71
2022/12/28 07:06:38;;;;;;;7.07;0.80;;;10.80;99.90;;;;;;5078933;28;20047;-71
2022/12/28 07:09:09;;;;;;;7.40;0.80;;;10.50;99.90;;;;;;5062492;28;20055;-72
2022/12/28 07:11:37;;;;;;;5.10;0.60;;;10.70;99.90;;;;;;5104421;28;20035;-72
2022/12/28 07:14:04;;;;;;;6.78;0.68;;;10.50;99.90;;;;;;5098874;28;20056;-71
2022/12/28 07:16:32;;;;;;;6.03;0.60;;;10.40;99.90;;;;;;5116885;28;20487;-71
2022/12/28 07:18:59;;;;;;;3.80;0.55;;;10.40;99.90;;;;;;5115745;28;20046;-71
2022/12/28 07:21:28;;;;;;;;;;;11.00;99.90;;;;;;5099750;28;20039;-71
2022/12/28 07:23:56;;;;;;;10.13;1.02;;;10.40;99.90;;;;;;5098053;28;20379;-70
2022/12/28 07:26:25;;;;;;;;;;;10.40;99.90;;;;;;5115834;28;20451;-72
2022/12/28 07:28:55;;;;;;;7.68;0.77;;;10.40;99.90;;;;;;5092122;28;19934;-71
2022/12/28 07:31:31;;;;;;;7.88;1.33;;;10.40;99.90;;;;;;5097833;28;20391;-71
2022/12/28 07:34:03;;;;;;;12.30;1.40;;;10.30;99.90;;;;;;5082052;28;20503;-71
2022/12/28 07:36:32;;;;;;;11.88;1.55;;;10.30;99.90;;;;;;5098879;28;20043;-71
2022/12/28 07:38:59;;;;;;;14.82;1.42;;;10.30;99.90;;;;;;5115569;28;20048;-72
2022/12/28 07:41:29;;;;;;;13.57;1.63;;;10.30;99.90;;;;;;5081965;28;20047;-71
2022/12/28 07:43:59;;;;;;;14.55;1.52;;;10.30;99.90;;;;;;5064482;28;20052;-71
2022/12/28 07:46:32;;;;;;;8.20;1.30;;;10.20;99.90;;;;;;5082078;28;20039;-71
2022/12/28 07:49:00;;;;;;;15.27;1.55;;;10.30;99.90;;;;;;5116723;28;20044;-71
2022/12/28 07:51:33;;;;;;;16.75;1.83;;;10.20;99.90;;;;;;5097407;28;20051;-72
2022/12/28 07:54:01;;;;;;;16.15;1.60;;;10.20;99.90;;;;;;5116227;28;20039;-71
2022/12/28 07:56:29;;;;;;;13.63;1.48;;;10.30;99.90;;;;;;5116209;28;20051;-71
2022/12/28 07:58:58;;;;;;;;;;;10.50;99.90;;;;;;5079872;28;20071;-72
2022/12/28 08:01:28;;;;;;;11.88;1.73;;;10.10;99.90;;;;;;5081158;28;19920;-73
2022/12/28 08:03:58;;;;;;;10.93;1.30;;;10.10;99.90;;;;;;5114667;28;20054;-71
2022/12/28 08:06:27;;;;;;;17.08;1.70;;;10.00;99.90;;;;;;5064535;28;20067;-71
2022/12/28 08:08:58;;;;;;;16.23;1.58;;;10.00;99.90;;;;;;5115616;28;20050;-71
2022/12/28 08:11:28;;;;;;;16.98;1.70;;;10.00;99.90;;;;;;5114632;28;20043;-71
2022/12/28 08:13:56;;;;;;;8.32;1.40;;;10.00;99.90;;;;;;5115470;28;20047;-71
2022/12/28 08:16:27;;;;;;;16.55;1.60;;;10.00;99.90;;;;;;5115311;28;20054;-72
2022/12/28 08:18:55;;;;;;;18.60;1.98;;;10.00;99.90;;;;;;5114496;28;20376;-70
2022/12/28 08:21:34;;;;;;;10.05;1.55;;;10.10;99.90;;;;;;5080671;28;20047;-70
2022/12/28 08:24:02;;;;;;;13.95;1.90;;;10.00;99.90;;;;;;5096515;28;20055;-71
2022/12/28 08:26:35;;;;;;;16.15;1.55;;;10.00;99.90;;;;;;5097768;28;20047;-71
2022/12/28 08:29:09;;;;;;;12.88;1.83;;;10.00;99.90;;;;;;5115313;28;20050;-71
2022/12/28 08:31:39;;;;;;;14.73;1.67;;;10.00;99.90;;;;;;5113915;28;20051;-71
2022/12/28 08:34:11;;;;;;;19.02;2.30;;;10.00;99.90;;;;;;5115283;28;20046;-71
2022/12/28 08:36:39;;;;;;;13.63;1.67;;;10.00;99.90;;;;;;5115398;28;20364;-71
2022/12/28 08:39:07;;;;;;;17.77;1.90;;;10.00;99.90;;;;;;5096328;28;20039;-71
2022/12/28 08:41:35;;;;;;;15.20;2.13;;;10.00;99.90;;;;;;5095092;28;20047;-72
2022/12/28 08:44:02;;;;;;;19.50;1.80;;;10.90;99.90;;;;;;5093794;28;20044;-72
2022/12/28 08:46:33;;;;;;;17.48;1.75;;;11.20;99.90;;;;;;5080161;28;20044;-73
2022/12/28 08:49:01;;;;;;;19.15;1.85;;;10.00;99.90;;;;;;5083164;28;20361;-72
2022/12/28 08:51:33;;;;;;;;;;;9.90;99.90;;;;;;5102684;28;20040;-73
2022/12/28 08:54:01;;;;;;;12.65;1.50;;;10.00;99.90;;;;;;5091696;28;19939;-75
2022/12/28 08:56:33;;;;;;;16.52;2.40;;;9.90;99.90;;;;;;5115142;28;20043;-73
2022/12/28 08:59:01;;;;;;;17.63;1.90;;;9.90;99.90;;;;;;5114005;28;20054;-73
2022/12/28 09:01:35;;;;;;;14.88;1.75;;;10.40;99.90;;;;;;5115480;28;20035;-74
2022/12/28 09:04:21;;;;;;;15.88;1.92;;;9.90;99.90;;;;;;5079007;28;20059;-73
2022/12/28 09:06:49;;;;;;;13.55;1.60;;;10.40;99.90;;;;;;5080501;28;20058;-73
2022/12/28 09:09:18;;;;;;;13.63;1.60;;;9.90;99.90;;;;;;5097057;28;20051;-73
2022/12/28 09:11:46;;;;;;;16.35;1.50;;;10.00;99.90;;;;;;5079394;28;20046;-72
2022/12/28 09:14:14;;;;;;;;;;;11.20;99.90;;;;;;5097666;28;20054;-72
2022/12/28 09:16:50;;;;;;;12.23;1.23;;;10.00;99.90;;;;;;5114072;28;20271;-72
2022/12/28 09:19:17;;;;;;;11.65;1.23;;;11.20;99.90;;;;;;5115153;28;20060;-72
2022/12/28 09:21:47;;;;;;;10.27;1.38;;;10.00;99.90;;;;;;5097221;28;20043;-72
2022/12/28 09:24:15;;;;;;;12.52;1.48;;;10.00;99.90;;;;;;5114305;28;20051;-73
2022/12/28 09:26:43;;;;;;;17.48;1.92;;;10.00;99.90;;;;;;5097767;28;20090;-72
2022/12/28 09:29:12;;;;;;;18.67;1.90;;;10.00;99.90;;;;;;5097096;28;20051;-72
2022/12/28 09:31:40;;;;;;;13.20;1.42;;;10.00;99.90;;;;;;5096008;28;20051;-72
2022/12/28 09:34:12;;;;;;;14.43;1.60;;;10.00;99.90;;;;;;5114687;28;20043;-69
2022/12/28 09:36:59;;;;;;;24.67;2.00;;;11.00;99.90;;;;;;5098884;28;20055;-71
2022/12/28 09:39:27;;;;;;;16.80;2.28;;;10.10;99.90;;;;;;5115013;28;20051;-72
2022/12/28 09:42:00;;;;;;;;;;;10.10;99.90;;;;;;5097429;28;20043;-72
2022/12/28 09:44:30;;;;;;;15.70;1.92;;;10.10;99.90;;;;;;5113823;28;19919;-75
2022/12/28 09:47:16;;;;;;;23.90;2.50;;;10.10;99.90;;;;;;5115043;28;20040;-76
2022/12/28 09:49:56;;;;;;;20.25;2.70;;;10.10;99.90;;;;;;5114815;28;20364;-77
2022/12/28 09:52:58;;;;;;;28.45;2.50;;;10.10;99.90;;;;;;5095695;28;20051;-74
2022/12/28 09:55:27;;;;;;;19.50;2.47;;;10.10;99.90;;;;;;5114665;28;20047;-75
2022/12/28 09:57:57;;;;;;;13.70;1.88;;;10.10;99.90;;;;;;5099308;28;20044;-79
2022/12/28 10:00:40;;;;;;;24.15;2.58;;;10.70;99.90;;;;;;5060221;28;20052;-76
2022/12/28 10:03:26;;;;;;;22.15;2.78;;;10.10;99.90;;;;;;5094032;28;20495;-80
2022/12/28 10:06:08;;;;;;;23.50;2.30;;;10.10;99.90;;;;;;5059741;28;20059;-79
2022/12/28 10:08:41;;;;;;;24.05;2.92;;;10.10;99.90;;;;;;5094008;28;20040;-77
2022/12/28 10:11:17;;;;;;;34.65;2.75;;;10.10;99.90;;;;;;5075761;28;20040;-77
2022/12/28 10:13:52;;;;;;;23.75;2.78;;;10.90;99.90;;;;;;5076971;28;20059;-81
2022/12/28 10:16:24;;;;;;;19.67;2.47;;;10.10;99.90;;;;;;5060543;28;20048;-80
2022/12/28 10:18:52;;;;;;;24.05;2.75;;;10.10;99.90;;;;;;5093010;28;20047;-78
2022/12/28 10:21:22;;;;;;;26.77;2.85;;;10.30;99.90;;;;;;5094118;28;20052;-79
2022/12/28 10:24:07;;;;;;;29.27;2.78;;;10.10;99.90;;;;;;5080934;28;20468;-76
2022/12/28 10:26:57;;;;;;;23.52;2.35;;;10.10;99.90;;;;;;5097678;28;20051;-78
2022/12/28 10:29:26;;;;;;;12.57;1.77;;;12.10;99.90;;;;;;5097711;28;20364;-77
2022/12/28 10:32:08;;;;;;;18.35;2.35;;;10.10;99.90;;;;;;5078856;28;20048;-82
2022/12/28 10:34:57;;;;;;;21.55;2.53;;;10.20;99.90;;;;;;5063140;28;20380;-78
2022/12/28 10:37:29;;;;;;;21.65;2.45;;;10.20;99.90;;;;;;5079299;28;20388;-78
2022/12/28 10:40:17;;;;;;;17.25;1.77;;;11.40;99.90;;;;;;5063259;28;20063;-81
2022/12/28 10:42:53;;;;;;;25.63;2.70;;;10.10;99.90;;;;;;5097274;28;20495;-82
2022/12/28 10:45:33;;;;;;;23.85;2.40;;;10.10;99.90;;;;;;5096331;28;20048;-82
2022/12/28 10:48:07;;;;;;;20.05;2.10;;;10.10;99.90;;;;;;5079697;28;20036;-78
2022/12/28 10:50:47;;;;;;;18.33;2.60;;;10.30;99.90;;;;;;5078672;28;20372;-81
2022/12/28 10:53:51;;;;;;;20.27;2.53;;;10.10;99.90;;;;;;5097323;28;20044;-81
2022/12/28 10:56:29;;;;;;;24.83;2.33;;;10.10;99.90;;;;;;5092887;28;20048;-79
2022/12/28 10:59:29;;;;;;;22.50;2.20;;;12.00;99.90;;;;;;5061377;28;20055;-78
2022/12/28 11:02:31;;;;;;;21.23;2.13;;;8.00;99.90;;;;;;5061009;28;20052;-79
2022/12/28 11:05:18;;;;;;;20.20;2.15;;;10.00;99.90;;;;;;5074647;28;20376;-79
2022/12/28 11:07:47;;;;;;;23.83;2.42;;;10.00;99.90;;;;;;5096723;28;20040;-78
2022/12/28 11:10:25;;;;;;;19.95;2.20;;;10.20;99.90;;;;;;5096005;28;20040;-79
2022/12/28 11:12:55;;;;;;;24.95;2.53;;;10.00;99.90;;;;;;5062828;28;20051;-80
2022/12/28 11:15:27;;;;;;;23.65;2.40;;;10.10;99.90;;;;;;5079559;28;20361;-77
2022/12/28 11:18:00;;;;;;;18.55;2.30;;;8.50;99.90;;;;;;5061318;28;20070;-79
2022/12/28 11:20:36;;;;;;;22.52;2.63;;;10.00;99.90;;;;;;5096705;28;20047;-77
2022/12/28 11:23:14;;;;;;;17.40;2.33;;;10.10;99.90;;;;;;5096851;28;20067;-75
2022/12/28 11:25:42;;;;;;;15.23;2.08;;;11.60;99.90;;;;;;5077682;28;20044;-80
2022/12/28 11:28:15;;;;;;;23.33;2.47;;;9.90;99.90;;;;;;5096818;28;20067;-78
2022/12/28 11:30:44;;;;;;;21.80;2.33;;;10.20;99.90;;;;;;5077700;28;20043;-80
2022/12/28 11:33:37;;;;;;;18.15;2.30;;;10.00;99.90;;;;;;5096753;28;20044;-76
2022/12/28 11:36:17;;;;;;;20.38;2.30;;;9.90;99.90;;;;;;5095805;28;20461;-82
2022/12/28 11:38:50;;;;;;;26.58;2.67;;;9.90;99.90;;;;;;5060681;28;20059;-81
2022/12/28 11:41:30;;;;;;;20.90;2.33;;;9.90;99.90;;;;;;5078263;28;20056;-78
2022/12/28 11:44:04;;;;;;;16.73;2.67;;;9.70;99.90;;;;;;5094975;28;20044;-78
2022/12/28 11:46:34;;;;;;;18.05;2.47;;;9.90;99.90;;;;;;5095965;28;20055;-78
2022/12/28 11:49:22;;;;;;;10.95;1.85;;;9.90;99.90;;;;;;5044702;28;20055;-79
2022/12/28 11:52:15;;;;;;;21.73;2.40;;;12.00;99.90;;;;;;5060085;28;20051;-77
2022/12/28 11:54:56;;;;;;;29.42;2.40;;;9.90;99.90;;;;;;5061961;28;20047;-79
2022/12/28 11:57:43;;;;;;;18.10;1.95;;;9.80;99.90;;;;;;5060330;28;20059;-77
2022/12/28 12:00:17;;;;;;;14.70;1.92;;;9.80;99.90;;;;;;5077544;28;20048;-79
2022/12/28 12:02:55;;;;;;;25.77;2.28;;;12.30;99.90;;;;;;5077835;28;20376;-71
2022/12/28 12:05:38;;;;;;;14.77;2.00;;;9.90;99.90;;;;;;5059878;28;20044;-71
2022/12/28 12:08:14;;;;;;;15.18;1.70;;;10.90;99.90;;;;;;5044452;28;20507;-72
2022/12/28 12:10:44;;;;;;;14.82;2.05;;;10.20;99.90;;;;;;5094520;28;20052;-72
2022/12/28 12:13:24;;;;;;;12.68;1.58;;;9.90;99.90;;;;;;5090805;28;20039;-69
2022/12/28 12:15:52;;;;;;;20.73;2.13;;;10.00;99.90;;;;;;5083509;28;20048;-70
2022/12/28 12:18:23;;;;;;;14.52;1.60;;;9.90;99.90;;;;;;5097058;28;20479;-70
2022/12/28 12:20:56;;;;;;;16.48;1.60;;;9.90;99.90;;;;;;5115665;28;20044;-71
2022/12/28 12:23:38;;;;;;;18.75;1.80;;;10.10;99.90;;;;;;5114753;28;20050;-74
2022/12/28 12:26:26;;;;;;;11.10;1.55;;;9.90;99.90;;;;;;5098117;28;20051;-72
2022/12/28 12:29:23;;;;;;;16.00;1.90;;;9.90;99.90;;;;;;5095306;28;20066;-72
2022/12/28 12:32:04;;;;;;;14.43;1.65;;;9.90;99.90;;;;;;5096316;28;20043;-70
2022/12/28 12:34:48;;;;;;;15.63;1.77;;;9.90;99.90;;;;;;5115713;28;20043;-71
2022/12/28 12:37:20;;;;;;;21.73;2.30;;;9.90;99.90;;;;;;5096630;28;20050;-71
2022/12/28 12:39:47;;;;;;;15.15;1.55;;;10.30;99.90;;;;;;5115868;28;20058;-72
2022/12/28 12:42:43;;;;;;;19.27;2.22;;;11.40;99.90;;;;;;5116053;28;20054;-71
2022/12/28 12:45:50;;;;;;;21.30;1.80;;;9.90;99.90;;;;;;5096007;28;20055;-72
2022/12/28 12:48:55;;;;;;;19.33;2.28;;;9.90;99.90;;;;;;5115812;28;20036;-70
2022/12/28 12:51:33;;;;;;;18.30;2.00;;;9.90;99.90;;;;;;5076272;28;20059;-72
2022/12/28 12:54:26;;;;;;;26.27;2.45;;;9.80;99.90;;;;;;5115558;28;20048;-73
2022/12/28 12:57:01;;;;;;;19.02;2.05;;;9.90;99.90;;;;;;5113208;28;20495;-71
2022/12/28 12:59:52;;;;;;;20.45;2.05;;;9.90;99.90;;;;;;5095631;28;20039;-72
2022/12/28 13:02:38;;;;;;;20.08;2.10;;;10.00;99.90;;;;;;5097072;28;20054;-72
2022/12/28 13:05:13;;;;;;;17.05;1.92;;;10.20;99.90;;;;;;5113707;28;20044;-72
2022/12/28 13:07:40;;;;;;;23.63;2.22;;;10.00;99.90;;;;;;5114810;28;20048;-71
2022/12/28 13:10:19;;;;;;;12.95;1.63;;;10.00;99.90;;;;;;5113782;28;20054;-73
2022/12/28 13:12:46;;;;;;;13.10;2.00;;;11.40;99.90;;;;;;5097025;28;20046;-73
2022/12/28 13:15:17;;;;;;;17.17;1.60;;;10.10;99.90;;;;;;5097051;28;20058;-70
2022/12/28 13:18:06;;;;;;;12.93;1.98;;;10.10;99.90;;;;;;5096025;28;20039;-71
2022/12/28 13:20:56;;;;;;;19.02;2.10;;;10.10;99.90;;;;;;5114615;28;20049;-70
2022/12/28 13:23:26;;;;;;;14.13;1.70;;;10.60;99.90;;;;;;5095944;28;20052;-73
2022/12/28 13:25:56;;;;;;;14.93;1.75;;;10.20;99.90;;;;;;5097017;28;20129;-72
2022/12/28 13:28:34;;;;;;;9.95;1.52;;;11.30;99.90;;;;;;5096701;28;20363;-73
2022/12/28 13:31:05;;;;;;;13.77;1.75;;;10.20;99.90;;;;;;5113669;28;20448;-72
2022/12/28 13:33:33;;;;;;;13.73;1.55;;;10.20;99.90;;;;;;5114865;28;20479;-71
2022/12/28 13:36:18;;;;;;;11.50;1.50;;;9.40;99.90;;;;;;5095433;28;20043;-71
2022/12/28 13:38:46;;;;;;;11.50;1.38;;;10.30;99.90;;;;;;5086712;28;20044;-73
2022/12/28 13:41:34;;;;;;;10.00;1.70;;;10.30;99.90;;;;;;5086422;28;20040;-72
2022/12/28 13:44:29;;;;;;;10.35;1.25;;;10.30;99.90;;;;;;5069516;28;20047;-71
2022/12/28 13:47:08;;;;;;;7.05;1.13;;;10.30;99.90;;;;;;5092017;28;20066;-72
2022/12/28 13:49:48;;;;;;;5.80;0.90;;;10.30;99.90;;;;;;5094246;28;20472;-73